Time;durP1;ratioP1;P1;durP2;ratioP2;P2;SDS_P1;SDS_P2;PMS_P1;PMS_P2;Temp;Humidity;BMP_temperature;BMP_pressure;BME280_temperature;BME280_humidity;BME280_pressure;Samples;Min_cycle;Max_cycle;Signal;HPM_P1;HPM_P2
2023/03/12 00:02:08;;;;;;;5.03;3.30;;;2.70;72.20;;;;;;5082170;28;20210;-83
2023/03/12 00:04:35;;;;;;;3.53;3.23;;;2.80;72.00;;;;;;5083007;28;20176;-83
2023/03/12 00:07:02;;;;;;;6.47;4.10;;;2.80;70.80;;;;;;5081718;28;20642;-84
2023/03/12 00:09:27;;;;;;;5.37;3.57;;;2.70;69.10;;;;;;5081968;28;20662;-83
2023/03/12 00:11:53;;;;;;;4.77;3.37;;;2.70;72.10;;;;;;5080699;28;20227;-83
2023/03/12 00:14:19;;;;;;;4.63;2.90;;;2.70;72.00;;;;;;5080625;28;20267;-82
2023/03/12 00:16:44;;;;;;;5.33;3.17;;;2.80;72.30;;;;;;5080875;28;20304;-85
2023/03/12 00:19:11;;;;;;;5.70;3.30;;;2.80;72.00;;;;;;5081301;28;20179;-83
2023/03/12 00:21:37;;;;;;;5.20;3.47;;;2.80;70.70;;;;;;5063710;28;20200;-84
2023/03/12 00:24:04;;;;;;;5.53;3.70;;;2.70;71.60;;;;;;5080981;28;20175;-84
2023/03/12 00:26:30;;;;;;;5.77;3.47;;;2.80;71.50;;;;;;5109809;23;20240;-84
2023/03/12 00:28:55;;;;;;;3.33;3.13;;;2.70;71.60;;;;;;5041297;28;20260;-81
2023/03/12 00:31:31;;;;;;;6.27;3.20;;;2.60;71.50;;;;;;5049950;28;20204;-82
2023/03/12 00:33:58;;;;;;;3.43;3.10;;;2.60;71.90;;;;;;5050777;28;20165;-83
2023/03/12 00:36:26;;;;;;;5.03;3.37;;;2.60;73.00;;;;;;5050239;28;20227;-83
2023/03/12 00:38:53;;;;;;;5.33;3.17;;;2.50;73.70;;;;;;5048761;28;20192;-83
2023/03/12 00:41:19;;;;;;;3.57;3.23;;;2.50;73.90;;;;;;5047339;28;20176;-82
2023/03/12 00:43:50;;;;;;;4.97;3.47;;;2.50;74.50;;;;;;5047436;28;20208;-81
2023/03/12 00:46:16;;;;;;;3.43;3.13;;;2.70;73.60;;;;;;5047560;28;20218;-83
2023/03/12 00:48:42;;;;;;;4.03;3.20;;;2.60;73.00;;;;;;5048878;28;20285;-81
2023/03/12 00:51:08;;;;;;;4.10;3.10;;;2.60;74.10;;;;;;5049034;28;20181;-81
2023/03/12 00:53:34;;;;;;;4.30;3.20;;;2.70;73.10;;;;;;5043450;28;20787;-82
2023/03/12 00:56:00;;;;;;;7.37;3.53;;;2.60;73.90;;;;;;5048761;28;20256;-82
2023/03/12 00:58:26;;;;;;;4.43;3.90;;;2.50;74.00;;;;;;5049412;28;20189;-82
2023/03/12 01:00:51;;;;;;;4.40;3.93;;;2.40;73.00;;;;;;5050745;28;20215;-83
2023/03/12 01:03:17;;;;;;;7.13;4.23;;;2.40;73.90;;;;;;5048187;28;20176;-82
2023/03/12 01:05:43;;;;;;;5.97;4.20;;;2.50;73.60;;;;;;5046564;28;20256;-81
2023/03/12 01:08:09;;;;;;;4.70;4.03;;;2.40;73.40;;;;;;5046412;28;20191;-84
2023/03/12 01:10:36;;;;;;;5.00;3.27;;;2.30;74.50;;;;;;5036199;28;20189;-85
2023/03/12 01:13:02;;;;;;;4.30;3.70;;;2.30;76.30;;;;;;5028947;28;20170;-82
2023/03/12 01:15:28;;;;;;;4.23;3.47;;;2.40;76.20;;;;;;5027884;28;20353;-81
2023/03/12 01:17:54;;;;;;;3.53;3.27;;;2.30;76.20;;;;;;5033153;28;20228;-81
2023/03/12 01:20:21;;;;;;;6.93;4.07;;;2.30;76.40;;;;;;5047860;28;20181;-84
2023/03/12 01:22:48;;;;;;;4.10;3.70;;;2.40;76.60;;;;;;5048358;28;20166;-83
2023/03/12 01:25:13;;;;;;;5.10;3.37;;;2.40;76.50;;;;;;5049910;28;20173;-80
2023/03/12 01:27:39;;;;;;;6.30;4.07;;;2.40;76.60;;;;;;5062779;28;20211;-82
2023/03/12 01:30:05;;;;;;;7.23;4.50;;;2.40;76.70;;;;;;5069114;28;20190;-81
2023/03/12 01:32:31;;;;;;;4.77;3.70;;;2.40;76.50;;;;;;5068396;28;20172;-82
2023/03/12 01:34:58;;;;;;;5.47;4.00;;;2.50;76.60;;;;;;5068449;28;20172;-83
2023/03/12 01:37:23;;;;;;;4.40;3.90;;;2.40;76.20;;;;;;5067483;28;20208;-80
2023/03/12 01:39:49;;;;;;;4.30;3.80;;;2.50;76.50;;;;;;5066511;28;20223;-81
2023/03/12 01:42:15;;;;;;;4.90;3.77;;;2.40;76.70;;;;;;5068358;28;20157;-81
2023/03/12 01:44:58;;;;;;;4.73;4.00;;;2.50;76.70;;;;;;5068169;28;20203;-82
2023/03/12 01:47:25;;;;;;;5.90;3.93;;;2.50;76.40;;;;;;5068278;28;20200;-82
2023/03/12 01:49:54;;;;;;;4.50;4.10;;;2.50;76.10;;;;;;5067380;28;20185;-82
2023/03/12 01:52:26;;;;;;;6.60;4.10;;;2.50;77.10;;;;;;5053045;28;20214;-81
2023/03/12 01:54:58;;;;;;;6.53;4.00;;;2.40;76.50;;;;;;5063284;28;20192;-81
2023/03/12 01:57:40;;;;;;;4.20;3.70;;;2.40;77.70;;;;;;5068338;28;20222;-81
2023/03/12 02:00:17;;;;;;;4.57;3.80;;;2.50;77.40;;;;;;5068104;28;20212;-82
2023/03/12 02:02:43;;;;;;;6.20;4.63;;;2.40;77.80;;;;;;5067918;28;20153;-84
2023/03/12 02:05:30;;;;;;;5.73;5.23;;;2.50;77.30;;;;;;5066110;28;20169;-82
2023/03/12 02:07:56;;;;;;;6.00;4.60;;;2.60;77.30;;;;;;5046987;28;20466;-85
2023/03/12 02:10:22;;;;;;;5.53;4.13;;;2.50;76.90;;;;;;5054318;28;20288;-82
2023/03/12 02:12:48;;;;;;;4.43;3.97;;;2.50;78.00;;;;;;5045440;28;20176;-83
2023/03/12 02:15:14;;;;;;;7.40;4.40;;;2.50;78.40;;;;;;5045821;28;20181;-80
2023/03/12 02:17:39;;;;;;;5.50;4.67;;;2.50;79.20;;;;;;5046354;28;20197;-84
2023/03/12 02:20:18;;;;;;;6.63;5.30;;;2.60;78.00;;;;;;5047427;28;20597;-82
2023/03/12 02:22:54;;;;;;;6.97;4.70;;;2.50;77.40;;;;;;5048341;28;20283;-84
2023/03/12 02:25:37;;;;;;;5.10;4.47;;;2.50;77.30;;;;;;5061591;28;20180;-79
2023/03/12 02:28:06;;;;;;;5.20;4.70;;;2.50;78.70;;;;;;5066725;28;20196;-80
2023/03/12 02:30:32;;;;;;;5.20;4.70;;;2.50;78.40;;;;;;5067700;28;20173;-81
2023/03/12 02:33:06;;;;;;;7.50;5.20;;;2.70;78.40;;;;;;5067790;28;20186;-84
2023/03/12 02:35:32;;;;;;;5.53;5.03;;;2.60;77.70;;;;;;5050021;28;20200;-83
2023/03/12 02:37:58;;;;;;;6.73;5.10;;;2.60;78.00;;;;;;5067249;28;20549;-82
2023/03/12 02:40:30;;;;;;;5.83;5.23;;;2.40;78.70;;;;;;5068087;28;20191;-81
2023/03/12 02:42:56;;;;;;;5.93;5.23;;;2.40;79.40;;;;;;5067107;28;20175;-81
2023/03/12 02:45:24;;;;;;;6.97;4.80;;;2.40;79.50;;;;;;5066143;28;20184;-81
2023/03/12 02:47:51;;;;;;;7.17;5.70;;;2.30;79.70;;;;;;5066959;28;20773;-81
2023/03/12 02:50:17;;;;;;;6.70;5.47;;;2.20;79.90;;;;;;5067637;28;20180;-79
2023/03/12 02:52:42;;;;;;;8.87;5.87;;;2.20;80.80;;;;;;5049388;28;20192;-83
2023/03/12 02:55:08;;;;;;;6.07;5.47;;;2.00;81.90;;;;;;5067605;28;20190;-80
2023/03/12 02:57:37;;;;;;;7.77;5.73;;;1.90;83.50;;;;;;5063658;28;20636;-82
2023/03/12 03:00:06;;;;;;;7.47;5.20;;;1.90;84.50;;;;;;5064408;28;20176;-80
2023/03/12 03:02:32;;;;;;;8.53;4.97;;;1.90;85.60;;;;;;5064506;28;20184;-81
2023/03/12 03:04:57;;;;;;;7.57;5.97;;;2.00;85.40;;;;;;5065650;28;20186;-81
2023/03/12 03:07:23;;;;;;;5.83;5.27;;;2.00;84.00;;;;;;5063297;28;20252;-83
2023/03/12 03:09:49;;;;;;;7.57;5.90;;;1.90;84.80;;;;;;5065348;28;20866;-81
2023/03/12 03:12:14;;;;;;;6.97;5.47;;;2.00;85.20;;;;;;5065466;28;20183;-80
2023/03/12 03:14:40;;;;;;;5.90;5.37;;;1.90;84.80;;;;;;5068382;28;20643;-84
2023/03/12 03:17:06;;;;;;;6.23;5.50;;;2.00;86.40;;;;;;5065245;28;20216;-81
2023/03/12 03:19:31;;;;;;;7.40;5.57;;;2.10;86.70;;;;;;5069136;28;20191;-80
2023/03/12 03:21:57;;;;;;;7.03;5.43;;;2.30;85.80;;;;;;5068269;28;20176;-82
2023/03/12 03:24:23;;;;;;;5.97;5.37;;;2.40;84.50;;;;;;5068685;28;20186;-81
2023/03/12 03:26:48;;;;;;;7.23;5.53;;;2.40;83.60;;;;;;5051115;28;20215;-81
2023/03/12 03:29:15;;;;;;;11.20;6.30;;;2.40;83.60;;;;;;5069372;28;20179;-84
2023/03/12 03:31:41;;;;;;;8.07;5.60;;;2.50;84.30;;;;;;5052279;28;20248;-79
2023/03/12 03:34:07;;;;;;;6.10;5.50;;;2.50;84.70;;;;;;5066645;28;20202;-81
2023/03/12 03:36:33;;;;;;;7.70;6.00;;;2.50;85.30;;;;;;5064960;28;20214;-82
2023/03/12 03:38:58;;;;;;;6.23;5.27;;;2.50;85.30;;;;;;5065146;28;20168;-81
2023/03/12 03:41:25;;;;;;;6.40;4.80;;;2.50;85.10;;;;;;5067057;28;20180;-81
2023/03/12 03:43:50;;;;;;;6.63;5.00;;;2.40;81.60;;;;;;5066461;28;20525;-82
2023/03/12 03:46:16;;;;;;;4.90;4.07;;;2.40;83.30;;;;;;5065948;28;20204;-78
2023/03/12 03:48:42;;;;;;;5.47;4.27;;;2.60;83.10;;;;;;5067160;28;20184;-82
2023/03/12 03:51:09;;;;;;;7.40;4.07;;;2.60;82.90;;;;;;5066266;28;20187;-79
2023/03/12 03:53:35;;;;;;;7.10;4.37;;;2.70;80.60;;;;;;5065844;28;20176;-82
2023/03/12 03:56:08;;;;;;;4.23;3.83;;;2.60;81.20;;;;;;5046814;28;20248;-82
2023/03/12 03:58:34;;;;;;;4.63;3.63;;;2.50;79.50;;;;;;5063688;28;20176;-83
2023/03/12 04:01:00;;;;;;;5.43;3.63;;;2.30;79.80;;;;;;5064506;28;20191;-83
2023/03/12 04:03:25;;;;;;;4.60;3.60;;;2.40;78.60;;;;;;5063313;28;20180;-83
2023/03/12 04:05:59;;;;;;;4.73;3.67;;;2.50;77.10;;;;;;5062885;28;20577;-81
2023/03/12 04:08:25;;;;;;;5.40;3.60;;;2.50;78.50;;;;;;5062959;28;20199;-83
2023/03/12 04:10:52;;;;;;;5.47;3.63;;;2.40;78.80;;;;;;5065346;28;20176;-80
2023/03/12 04:13:18;;;;;;;5.07;3.80;;;2.40;79.30;;;;;;5065975;28;20222;-83
2023/03/12 04:15:52;;;;;;;6.30;3.93;;;2.40;79.70;;;;;;5064729;28;20211;-81
2023/03/12 04:18:18;;;;;;;4.47;4.00;;;2.30;80.10;;;;;;5066714;28;20247;-80
2023/03/12 04:20:44;;;;;;;6.00;4.53;;;2.40;80.00;;;;;;5066725;28;20192;-84
2023/03/12 04:23:10;;;;;;;4.40;4.00;;;2.40;80.40;;;;;;5066464;28;20199;-83
2023/03/12 04:25:36;;;;;;;5.33;4.10;;;2.40;80.60;;;;;;5067241;28;20187;-82
2023/03/12 04:28:03;;;;;;;6.77;4.53;;;2.20;83.80;;;;;;5041618;28;20205;-80
2023/03/12 04:30:28;;;;;;;5.43;4.80;;;2.10;87.10;;;;;;5045000;28;20185;-82
2023/03/12 04:32:54;;;;;;;6.23;5.00;;;2.10;88.90;;;;;;5065258;28;20238;-82
2023/03/12 04:35:20;;;;;;;5.30;4.70;;;2.10;89.60;;;;;;5066078;28;20187;-83
2023/03/12 04:37:46;;;;;;;8.03;4.57;;;2.10;88.70;;;;;;5065691;28;20240;-82
2023/03/12 04:40:12;;;;;;;4.90;4.23;;;2.20;87.00;;;;;;5066998;28;20213;-82
2023/03/12 04:42:38;;;;;;;5.47;4.30;;;2.30;87.40;;;;;;5067241;28;20176;-79
2023/03/12 04:45:05;;;;;;;5.07;4.33;;;2.30;86.10;;;;;;5066240;28;20222;-80
2023/03/12 04:47:32;;;;;;;6.60;4.67;;;2.30;89.00;;;;;;5065085;28;20287;-86
2023/03/12 04:49:59;;;;;;;6.67;5.00;;;2.20;90.50;;;;;;5066394;28;20176;-82
2023/03/12 04:52:25;;;;;;;6.57;4.40;;;2.20;90.40;;;;;;5065168;28;20805;-83
2023/03/12 04:54:52;;;;;;;5.50;4.80;;;2.30;90.30;;;;;;5065062;28;20191;-81
2023/03/12 04:57:18;;;;;;;7.00;4.30;;;2.30;91.50;;;;;;5045407;28;20208;-82
2023/03/12 04:59:44;;;;;;;4.60;3.97;;;2.40;92.30;;;;;;5046813;28;20210;-82
2023/03/12 05:02:10;;;;;;;4.63;4.20;;;2.50;90.70;;;;;;5063846;28;20200;-82
2023/03/12 05:04:35;;;;;;;6.47;4.73;;;2.60;90.60;;;;;;5064334;28;20188;-83
2023/03/12 05:07:02;;;;;;;6.03;4.17;;;2.60;90.50;;;;;;5062954;28;20222;-84
2023/03/12 05:09:27;;;;;;;6.13;4.53;;;2.60;90.50;;;;;;5061454;28;20189;-82
2023/03/12 05:11:53;;;;;;;5.80;4.40;;;2.70;91.60;;;;;;5044919;28;20189;-81
2023/03/12 05:14:19;;;;;;;4.90;4.07;;;2.80;91.80;;;;;;5046462;28;20181;-80
2023/03/12 05:16:45;;;;;;;5.27;4.77;;;2.90;91.20;;;;;;5047774;28;20220;-81
2023/03/12 05:19:11;;;;;;;6.27;4.33;;;2.90;89.80;;;;;;5049978;28;20185;-82
2023/03/12 05:21:40;;;;;;;5.60;4.27;;;2.90;91.30;;;;;;5048295;28;20189;-80
2023/03/12 05:24:06;;;;;;;5.97;4.53;;;3.00;91.30;;;;;;5065034;28;20331;-81
2023/03/12 05:26:32;;;;;;;5.07;4.57;;;2.90;91.40;;;;;;5067802;28;20220;-84
2023/03/12 05:29:00;;;;;;;4.53;4.13;;;2.90;90.90;;;;;;5054414;28;20173;-83
2023/03/12 05:31:27;;;;;;;5.60;4.20;;;2.90;90.50;;;;;;5032949;28;20193;-80
2023/03/12 05:33:53;;;;;;;7.10;4.40;;;2.90;92.00;;;;;;5058107;28;20246;-84
2023/03/12 05:36:19;;;;;;;5.70;4.53;;;2.90;94.10;;;;;;5069479;28;20208;-81
2023/03/12 05:38:45;;;;;;;5.47;4.60;;;2.90;95.60;;;;;;5068180;28;20208;-81
2023/03/12 05:41:25;;;;;;;5.37;4.43;;;2.90;95.50;;;;;;5069583;28;20207;-79
2023/03/12 05:43:53;;;;;;;5.20;4.50;;;2.90;94.20;;;;;;5069073;28;20145;-81
2023/03/12 05:46:19;;;;;;;5.23;4.40;;;2.80;94.30;;;;;;5067848;28;20196;-81
2023/03/12 05:48:45;;;;;;;5.80;4.90;;;2.80;94.20;;;;;;5066730;28;20448;-82
2023/03/12 05:51:11;;;;;;;6.13;4.73;;;2.70;93.60;;;;;;5066070;28;20176;-80
2023/03/12 05:53:36;;;;;;;6.77;4.73;;;2.70;95.10;;;;;;5065652;28;20183;-82
2023/03/12 05:56:04;;;;;;;5.10;4.53;;;2.70;94.60;;;;;;5065107;28;20232;-79
2023/03/12 05:58:30;;;;;;;4.70;4.17;;;2.80;94.60;;;;;;5064214;28;20168;-82
2023/03/12 06:00:56;;;;;;;4.87;3.47;;;2.90;94.50;;;;;;5049123;28;20237;-83
2023/03/12 06:03:21;;;;;;;5.27;4.47;;;2.70;94.40;;;;;;5064988;28;20362;-80
2023/03/12 06:05:47;;;;;;;5.17;4.47;;;2.70;94.70;;;;;;5065705;28;20858;-83
2023/03/12 06:08:13;;;;;;;6.87;4.47;;;2.70;94.70;;;;;;5067746;28;20183;-81
2023/03/12 06:10:39;;;;;;;8.20;6.10;;;2.70;94.70;;;;;;5067511;28;20177;-83
2023/03/12 06:13:05;;;;;;;6.27;5.10;;;2.70;95.10;;;;;;5067234;28;20180;-82
2023/03/12 06:15:31;;;;;;;6.57;5.70;;;2.80;94.40;;;;;;5065920;28;20214;-82
2023/03/12 06:17:56;;;;;;;8.10;6.13;;;2.80;93.40;;;;;;5065636;28;20180;-79
2023/03/12 06:20:22;;;;;;;5.93;4.50;;;2.90;94.60;;;;;;5066813;28;20195;-81
2023/03/12 06:22:48;;;;;;;7.10;5.60;;;3.00;94.00;;;;;;5067129;28;20228;-81
2023/03/12 06:25:14;;;;;;;7.60;6.30;;;3.20;93.20;;;;;;5065464;28;20260;-78
2023/03/12 06:27:40;;;;;;;5.57;4.73;;;3.30;92.50;;;;;;5064785;28;20216;-83
2023/03/12 06:30:07;;;;;;;4.93;4.40;;;3.30;93.60;;;;;;5065598;28;20187;-79
2023/03/12 06:32:32;;;;;;;7.57;4.73;;;3.30;94.90;;;;;;5063396;28;20271;-80
2023/03/12 06:35:03;;;;;;;9.17;8.27;;;3.20;96.30;;;;;;5064650;28;20173;-80
2023/03/12 06:37:29;;;;;;;7.37;6.37;;;3.20;96.20;;;;;;5064086;28;20254;-80
2023/03/12 06:42:31;;;;;;;6.50;5.10;;;3.10;97.70;;;;;;5095470;22;20972;-81
2023/03/12 06:44:56;;;;;;;7.77;6.57;;;3.00;97.70;;;;;;5084271;28;20171;-80
2023/03/12 06:47:22;;;;;;;6.23;4.90;;;2.90;97.20;;;;;;5083471;28;20175;-83
2023/03/12 06:49:47;;;;;;;6.00;4.50;;;2.90;98.80;;;;;;5082608;28;20237;-82
2023/03/12 06:52:13;;;;;;;5.07;4.57;;;3.00;96.80;;;;;;5080962;28;20310;-81
2023/03/12 06:54:38;;;;;;;4.80;4.20;;;3.10;96.00;;;;;;5080679;28;20176;-80
2023/03/12 06:57:04;;;;;;;7.80;4.80;;;3.20;94.80;;;;;;5081411;28;20211;-80
2023/03/12 06:59:30;;;;;;;4.50;4.07;;;3.10;95.20;;;;;;5080586;28;20691;-79
2023/03/12 07:01:55;;;;;;;4.17;3.77;;;3.10;94.70;;;;;;5083076;28;20191;-80
2023/03/12 07:04:32;;;;;;;5.50;3.87;;;3.20;92.80;;;;;;5083156;28;20183;-81
2023/03/12 07:06:57;;;;;;;6.13;4.43;;;3.20;94.60;;;;;;5082160;28;20665;-82
2023/03/12 07:09:23;;;;;;;4.50;4.10;;;3.20;96.20;;;;;;5086625;28;20209;-82
2023/03/12 07:11:49;;;;;;;5.27;4.70;;;3.20;95.90;;;;;;5085381;28;20291;-83
2023/03/12 07:14:14;;;;;;;7.47;4.97;;;3.20;96.70;;;;;;5063875;28;20188;-81
2023/03/12 07:16:40;;;;;;;5.10;4.40;;;3.30;94.00;;;;;;5062553;28;20242;-80
2023/03/12 07:19:05;;;;;;;6.23;4.70;;;3.20;94.80;;;;;;5063087;28;20246;-79
2023/03/12 07:21:31;;;;;;;7.23;4.80;;;3.30;96.30;;;;;;5061729;28;20202;-82
2023/03/12 07:23:57;;;;;;;7.23;5.03;;;3.40;96.80;;;;;;5094125;28;20236;-82
2023/03/12 07:26:22;;;;;;;5.07;4.57;;;3.30;97.20;;;;;;5091012;28;20197;-78
2023/03/12 07:28:48;;;;;;;5.53;4.43;;;3.30;98.60;;;;;;5068353;28;20192;-81
2023/03/12 07:31:14;;;;;;;6.90;4.57;;;3.30;99.60;;;;;;5064930;28;20204;-81
2023/03/12 07:33:40;;;;;;;7.00;5.07;;;3.30;99.90;;;;;;5060492;28;20180;-79
2023/03/12 07:36:06;;;;;;;5.60;4.93;;;3.30;99.80;;;;;;5058160;28;20735;-81
2023/03/12 07:38:31;;;;;;;6.00;5.40;;;3.30;99.90;;;;;;5061530;28;20757;-82
2023/03/12 07:40:59;;;;;;;6.67;5.47;;;3.30;99.90;;;;;;5064597;28;20212;-82
2023/03/12 07:43:24;;;;;;;6.93;5.23;;;3.20;99.90;;;;;;5077340;28;20377;-82
2023/03/12 07:45:50;;;;;;;6.43;4.97;;;3.20;99.90;;;;;;5080499;28;20179;-81
2023/03/12 07:48:18;;;;;;;7.30;6.20;;;3.20;99.90;;;;;;5082340;28;20240;-82
2023/03/12 07:50:44;;;;;;;6.70;6.10;;;3.20;99.90;;;;;;5083365;28;20200;-82
2023/03/12 07:53:10;;;;;;;7.53;5.47;;;3.20;99.90;;;;;;5082077;28;20183;-83
2023/03/12 07:55:36;;;;;;;7.00;6.00;;;3.20;99.90;;;;;;5081136;28;20262;-84
2023/03/12 07:58:02;;;;;;;7.43;5.50;;;3.30;99.90;;;;;;5063662;28;20184;-84
2023/03/12 08:00:28;;;;;;;7.77;6.07;;;3.30;99.90;;;;;;5066106;28;20270;-82
2023/03/12 08:02:54;;;;;;;7.43;6.13;;;3.30;99.90;;;;;;5047475;28;20757;-82
2023/03/12 08:05:23;;;;;;;7.37;6.30;;;3.30;99.90;;;;;;5064163;28;20191;-82
2023/03/12 08:07:52;;;;;;;8.90;6.67;;;3.40;99.90;;;;;;5065885;28;20164;-84
2023/03/12 08:10:18;;;;;;;7.00;5.67;;;3.50;99.90;;;;;;5088560;28;20199;-82
2023/03/12 08:12:44;;;;;;;8.50;6.97;;;3.50;99.90;;;;;;5071265;28;20179;-82
2023/03/12 08:15:11;;;;;;;9.20;7.43;;;3.50;99.90;;;;;;5074775;28;20183;-84
2023/03/12 08:17:37;;;;;;;8.80;6.60;;;3.50;99.90;;;;;;5072459;28;20272;-82
2023/03/12 08:20:05;;;;;;;10.10;8.80;;;3.50;99.90;;;;;;5073318;28;20231;-83
2023/03/12 08:22:31;;;;;;;9.40;6.07;;;3.40;99.90;;;;;;5074042;28;20294;-80
2023/03/12 08:24:56;;;;;;;13.50;12.40;;;3.10;99.90;;;;;;5070239;28;20199;-82
2023/03/12 08:27:22;;;;;;;10.17;9.27;;;3.20;99.90;;;;;;5074712;28;20267;-81
2023/03/12 08:29:48;;;;;;;12.67;11.57;;;3.20;99.90;;;;;;5070004;28;20206;-83
2023/03/12 08:32:14;;;;;;;7.47;6.60;;;3.20;99.90;;;;;;5075327;28;20452;-81
2023/03/12 08:34:39;;;;;;;18.87;17.07;;;3.20;99.90;;;;;;5065520;28;20192;-83
2023/03/12 08:37:05;;;;;;;7.57;6.87;;;3.20;99.90;;;;;;5064669;28;20204;-82
2023/03/12 08:39:31;;;;;;;11.37;10.37;;;3.20;99.90;;;;;;5075530;28;20202;-83
2023/03/12 08:41:57;;;;;;;9.20;7.10;;;3.10;99.90;;;;;;5081924;28;20293;-82
2023/03/12 08:44:23;;;;;;;11.53;10.33;;;3.10;99.90;;;;;;5047733;28;20275;-82
2023/03/12 08:46:49;;;;;;;9.97;7.57;;;3.10;99.90;;;;;;5079521;28;20187;-81
2023/03/12 08:49:15;;;;;;;8.73;7.87;;;3.00;99.90;;;;;;5078202;28;20186;-82
2023/03/12 08:51:41;;;;;;;9.30;8.27;;;3.00;99.90;;;;;;5084220;28;20227;-83
2023/03/12 08:54:07;;;;;;;8.30;7.37;;;3.00;99.90;;;;;;5086010;28;20172;-82
2023/03/12 08:56:35;;;;;;;9.43;7.73;;;3.00;99.90;;;;;;5086977;28;20325;-83
2023/03/12 08:59:01;;;;;;;11.20;8.20;;;3.10;99.90;;;;;;5059325;28;20211;-81
2023/03/12 09:01:27;;;;;;;12.17;8.13;;;3.10;99.90;;;;;;5088388;28;20204;-82
2023/03/12 09:03:54;;;;;;;10.77;8.43;;;3.10;99.90;;;;;;5087490;28;20196;-84
2023/03/12 09:06:20;;;;;;;8.07;7.27;;;3.10;99.90;;;;;;5085189;28;20203;-82
2023/03/12 09:08:48;;;;;;;8.77;7.47;;;3.00;99.90;;;;;;5085806;28;20192;-82
2023/03/12 09:11:14;;;;;;;9.73;8.17;;;2.90;99.90;;;;;;5088181;28;20208;-82
2023/03/12 09:13:42;;;;;;;10.70;7.57;;;3.00;99.90;;;;;;5076784;28;20184;-83
2023/03/12 09:16:08;;;;;;;9.90;7.00;;;2.70;99.90;;;;;;5087166;28;20214;-84
2023/03/12 09:18:34;;;;;;;11.90;10.40;;;2.70;99.90;;;;;;5084435;28;20187;-83
2023/03/12 09:21:00;;;;;;;10.03;9.07;;;2.70;99.90;;;;;;5056621;28;20200;-82
2023/03/12 09:23:26;;;;;;;9.87;8.97;;;2.80;99.90;;;;;;5070243;28;20748;-82
2023/03/12 09:25:53;;;;;;;9.33;8.37;;;2.90;99.90;;;;;;5073550;28;20196;-80
2023/03/12 09:28:19;;;;;;;10.43;8.73;;;2.80;99.90;;;;;;5068143;28;20207;-81
2023/03/12 09:30:45;;;;;;;10.03;9.07;;;2.80;99.90;;;;;;5068829;28;20264;-82
2023/03/12 09:33:11;;;;;;;10.20;9.20;;;2.80;99.90;;;;;;5067141;28;20164;-83
2023/03/12 09:35:37;;;;;;;11.37;10.27;;;3.00;99.90;;;;;;5072564;28;20418;-82
2023/03/12 09:38:03;;;;;;;9.77;8.77;;;2.90;99.90;;;;;;5076028;28;20181;-81
2023/03/12 09:40:31;;;;;;;9.47;8.57;;;2.80;99.90;;;;;;5065908;28;20282;-81
2023/03/12 09:43:01;;;;;;;9.37;8.20;;;3.00;99.90;;;;;;5084842;28;20179;-82
2023/03/12 09:45:31;;;;;;;9.80;8.80;;;3.20;99.90;;;;;;5085287;28;20168;-83
2023/03/12 09:48:06;;;;;;;9.87;8.90;;;3.30;99.90;;;;;;5085899;28;20271;-84
2023/03/12 09:50:39;;;;;;;10.70;9.53;;;3.10;99.90;;;;;;5086022;28;20280;-83
2023/03/12 09:53:05;;;;;;;10.50;9.43;;;3.20;99.90;;;;;;5087413;28;20191;-82
2023/03/12 09:55:39;;;;;;;10.50;9.50;;;3.40;99.90;;;;;;5074512;28;20191;-83
2023/03/12 09:58:37;;;;;;;10.53;9.53;;;3.60;99.90;;;;;;5068393;28;20632;-83
2023/03/12 10:01:21;;;;;;;10.57;9.60;;;3.90;99.90;;;;;;5047644;28;20204;-83
2023/03/12 10:04:02;;;;;;;10.70;9.47;;;3.90;99.90;;;;;;5066259;28;20165;-82
2023/03/12 10:06:54;;;;;;;11.67;10.57;;;3.80;99.90;;;;;;5073328;28;20174;-83
2023/03/12 10:09:32;;;;;;;11.80;9.27;;;3.80;99.90;;;;;;5047005;28;20210;-82
2023/03/12 10:12:12;;;;;;;10.73;9.73;;;3.90;99.90;;;;;;5081602;28;20522;-82
2023/03/12 10:14:44;;;;;;;9.43;8.63;;;4.20;99.90;;;;;;5079021;28;20184;-79
2023/03/12 10:17:43;;;;;;;11.77;9.33;;;4.30;99.90;;;;;;5076393;28;20751;-82
2023/03/12 10:20:29;;;;;;;10.03;9.13;;;4.40;99.90;;;;;;5083800;28;20190;-82
2023/03/12 10:23:04;;;;;;;10.87;9.87;;;4.60;99.90;;;;;;5084130;28;20171;-81
2023/03/12 10:26:02;;;;;;;11.07;10.03;;;4.80;99.90;;;;;;5086722;28;20238;-82
2023/03/12 10:28:42;;;;;;;12.77;9.97;;;4.80;99.90;;;;;;5073991;28;20393;-81
2023/03/12 10:31:20;;;;;;;12.67;11.17;;;4.70;99.90;;;;;;5079886;28;20226;-82
2023/03/12 10:33:55;;;;;;;11.40;10.30;;;5.00;99.90;;;;;;5077766;28;20306;-81
2023/03/12 10:36:32;;;;;;;11.43;10.43;;;5.40;99.90;;;;;;5081013;28;20195;-83
2023/03/12 10:38:58;;;;;;;11.57;10.17;;;5.90;99.90;;;;;;5082712;28;20327;-82
2023/03/12 10:41:28;;;;;;;9.97;9.00;;;6.20;99.90;;;;;;5077163;28;20276;-83
2023/03/12 10:43:59;;;;;;;11.73;10.63;;;6.40;99.90;;;;;;5059309;28;20211;-82
2023/03/12 10:46:45;;;;;;;10.90;9.87;;;6.30;99.90;;;;;;5084015;28;20188;-82
2023/03/12 10:49:20;;;;;;;14.63;9.87;;;6.40;99.90;;;;;;5078315;28;20171;-81
2023/03/12 10:52:16;;;;;;;10.93;9.83;;;6.50;99.90;;;;;;5075419;28;20260;-82
2023/03/12 10:54:45;;;;;;;11.37;9.93;;;6.50;99.90;;;;;;5059500;28;20798;-82
2023/03/12 10:57:12;;;;;;;10.50;9.53;;;6.80;99.90;;;;;;5084350;28;20195;-82
2023/03/12 10:59:42;;;;;;;11.37;10.23;;;7.00;99.90;;;;;;5080720;28;20175;-80
2023/03/12 11:02:29;;;;;;;10.27;9.27;;;7.00;99.90;;;;;;5082132;28;20277;-82
2023/03/12 11:04:56;;;;;;;11.47;10.27;;;7.30;99.90;;;;;;5076741;28;20184;-83
2023/03/12 11:07:34;;;;;;;10.90;9.80;;;7.20;99.90;;;;;;5070640;28;20180;-81
2023/03/12 11:10:05;;;;;;;10.97;9.97;;;7.40;99.90;;;;;;5077025;28;20198;-81
2023/03/12 11:12:34;;;;;;;10.70;9.33;;;8.00;99.90;;;;;;5084654;28;20188;-82
2023/03/12 11:15:22;;;;;;;9.93;8.97;;;8.10;99.90;;;;;;5073252;28;20850;-82
2023/03/12 11:17:48;;;;;;;9.70;8.70;;;8.50;99.90;;;;;;5077252;28;20289;-83
2023/03/12 11:20:25;;;;;;;9.57;8.60;;;8.90;99.90;;;;;;5072628;28;20191;-81
2023/03/12 11:22:51;;;;;;;11.13;9.97;;;9.10;99.90;;;;;;5074222;28;20244;-81
2023/03/12 11:25:21;;;;;;;9.23;8.23;;;9.20;99.90;;;;;;5072765;28;20230;-81
2023/03/12 11:27:52;;;;;;;10.83;9.60;;;9.40;99.90;;;;;;5075509;28;20230;-80
2023/03/12 11:30:23;;;;;;;9.13;8.33;;;9.80;99.90;;;;;;5067969;28;20224;-82
2023/03/12 11:32:50;;;;;;;8.63;7.73;;;10.00;99.90;;;;;;5051603;28;20175;-83
2023/03/12 11:35:19;;;;;;;11.23;8.63;;;10.10;99.90;;;;;;5070096;28;20171;-84
2023/03/12 11:38:22;;;;;;;9.30;8.27;;;10.10;99.90;;;;;;5069074;28;20236;-82
2023/03/12 11:41:02;;;;;;;12.73;9.33;;;10.00;99.90;;;;;;5072594;28;20210;-83
2023/03/12 11:43:46;;;;;;;9.53;8.47;;;10.00;99.90;;;;;;5067484;28;20178;-81
2023/03/12 11:46:45;;;;;;;10.23;9.10;;;10.00;99.90;;;;;;5059359;28;20169;-82
2023/03/12 11:49:23;;;;;;;9.20;8.33;;;10.20;99.90;;;;;;5061704;28;20206;-82
2023/03/12 11:51:49;;;;;;;8.30;7.43;;;10.30;99.90;;;;;;5044149;28;20219;-81
2023/03/12 11:54:37;;;;;;;7.80;7.00;;;10.30;99.90;;;;;;5063103;28;20184;-82
2023/03/12 11:57:25;;;;;;;10.63;6.50;;;10.50;99.90;;;;;;5062788;28;20207;-81
2023/03/12 12:00:08;;;;;;;10.60;5.93;;;10.50;99.90;;;;;;5061869;28;20211;-82
2023/03/12 12:02:42;;;;;;;7.67;5.80;;;10.40;99.90;;;;;;5063097;28;20152;-80
2023/03/12 12:05:39;;;;;;;7.67;6.13;;;10.60;99.90;;;;;;5045867;28;20180;-83
2023/03/12 12:08:36;;;;;;;7.30;5.50;;;10.50;99.90;;;;;;5068365;28;20416;-81
2023/03/12 12:11:29;;;;;;;7.27;5.23;;;10.50;99.90;;;;;;5078407;28;20212;-82
2023/03/12 12:14:20;;;;;;;8.10;5.73;;;10.70;99.90;;;;;;5083191;28;20255;-82
2023/03/12 12:16:59;;;;;;;7.83;5.73;;;10.80;99.90;;;;;;5082515;28;20191;-82
2023/03/12 12:19:36;;;;;;;8.03;4.97;;;10.70;99.90;;;;;;5093314;28;20388;-79
2023/03/12 12:22:08;;;;;;;7.57;4.77;;;11.10;99.90;;;;;;5076461;28;20203;-80
2023/03/12 12:24:53;;;;;;;7.40;4.27;;;11.20;99.90;;;;;;5085116;28;20194;-81
2023/03/12 12:27:26;;;;;;;6.90;4.20;;;11.30;99.90;;;;;;5067900;28;20194;-81
2023/03/12 12:30:26;;;;;;;4.73;4.07;;;11.30;99.90;;;;;;5064282;28;20656;-80
2023/03/12 12:33:10;;;;;;;5.70;3.87;;;11.40;99.90;;;;;;5064414;28;20157;-83
2023/03/12 12:35:44;;;;;;;7.17;4.23;;;11.40;99.90;;;;;;5065442;28;20180;-81
2023/03/12 12:38:47;;;;;;;7.57;4.43;;;11.50;99.90;;;;;;5084724;28;20186;-81
2023/03/12 12:41:19;;;;;;;7.57;4.03;;;11.60;99.90;;;;;;5005508;28;20257;-83
2023/03/12 12:43:48;;;;;;;5.20;3.90;;;12.30;99.90;;;;;;5074290;28;20200;-80
2023/03/12 12:46:25;;;;;;;6.30;4.00;;;12.90;93.60;;;;;;5086364;28;20269;-80
2023/03/12 12:48:59;;;;;;;8.80;4.43;;;13.40;91.80;;;;;;5087811;28;20179;-82
2023/03/12 12:51:30;;;;;;;6.47;4.10;;;13.50;87.00;;;;;;5087511;28;20220;-82
2023/03/12 12:54:04;;;;;;;7.93;4.30;;;13.60;88.20;;;;;;5063500;28;20201;-81
2023/03/12 12:56:30;;;;;;;10.93;4.33;;;13.10;86.90;;;;;;5072031;28;20213;-82
2023/03/12 12:59:24;;;;;;;9.60;4.50;;;12.70;89.40;;;;;;5065889;28;20207;-81
2023/03/12 13:01:52;;;;;;;9.90;4.90;;;12.50;91.90;;;;;;5067274;28;20258;-81
2023/03/12 13:04:38;;;;;;;9.03;3.90;;;12.40;89.30;;;;;;5075517;28;20214;-83
2023/03/12 13:07:10;;;;;;;6.57;4.40;;;12.20;93.30;;;;;;5090437;28;20196;-83
2023/03/12 13:10:04;;;;;;;11.03;5.73;;;12.00;93.10;;;;;;5087365;28;20243;-82